createdAt,value
2022-09-09T00:02:11.855Z,41.7
2022-09-09T00:07:12.360Z,41.7
2022-09-09T00:12:12.814Z,41.7
2022-09-09T00:17:13.242Z,41.7
2022-09-09T00:22:13.670Z,41.6
2022-09-09T00:27:14.091Z,41.6
2022-09-09T00:32:14.501Z,41.6
2022-09-09T00:37:15.123Z,41.6
2022-09-09T00:42:16.430Z,41.5
2022-09-09T00:47:16.856Z,41.5
2022-09-09T00:52:17.498Z,41.4
2022-09-09T00:57:17.921Z,41.4
2022-09-09T01:02:18.391Z,41.4
2022-09-09T01:07:18.899Z,41.4
2022-09-09T01:12:19.342Z,41.3
2022-09-09T01:17:19.753Z,41.3
2022-09-09T01:22:20.187Z,41.2
2022-09-09T01:27:20.592Z,41.2
2022-09-09T01:32:20.994Z,41.2
2022-09-09T01:37:21.631Z,41.2
2022-09-09T01:42:22.049Z,41.1
2022-09-09T01:47:22.496Z,41.1
2022-09-09T01:52:22.890Z,41.1
2022-09-09T01:57:23.293Z,41
2022-09-09T02:02:23.742Z,41
2022-09-09T02:07:24.240Z,41
2022-09-09T02:12:24.704Z,40.9
2022-09-09T02:17:25.418Z,40.9
2022-09-09T02:22:26.089Z,40.9
2022-09-09T02:27:26.547Z,40.8
2022-09-09T02:32:26.996Z,40.8
2022-09-09T02:37:27.705Z,40.8
2022-09-09T02:42:28.153Z,40.8
2022-09-09T02:47:28.618Z,40.7
2022-09-09T02:52:29.016Z,40.7
2022-09-09T02:57:29.687Z,40.7
2022-09-09T03:02:30.346Z,40.6
2022-09-09T03:07:30.933Z,40.6
2022-09-09T03:12:31.366Z,40.6
2022-09-09T03:17:32.024Z,40.6
2022-09-09T03:22:32.476Z,40.5
2022-09-09T03:27:32.922Z,40.4
2022-09-09T03:32:33.336Z,40.4
2022-09-09T03:37:33.775Z,40.4
2022-09-09T03:42:34.207Z,40.4
2022-09-09T03:47:34.637Z,40.4
2022-09-09T03:52:35.280Z,40.3
2022-09-09T03:57:35.719Z,40.3
2022-09-09T04:02:36.217Z,40.2
2022-09-09T04:07:36.775Z,40.2
2022-09-09T04:12:37.192Z,40.2
2022-09-09T04:17:37.673Z,40.2
2022-09-09T04:22:38.067Z,40.1
2022-09-09T04:27:38.490Z,40.1
2022-09-09T04:32:38.905Z,40.1
2022-09-09T04:37:39.370Z,40.1
2022-09-09T04:42:39.809Z,40
2022-09-09T04:47:40.210Z,40
2022-09-09T04:52:40.632Z,39.9
2022-09-09T04:57:41.065Z,39.9
2022-09-09T05:02:41.527Z,39.9
2022-09-09T05:07:41.948Z,39.9
2022-09-09T05:12:42.374Z,39.9
2022-09-09T05:17:42.841Z,39.8
2022-09-09T05:22:43.252Z,39.8
2022-09-09T05:27:43.671Z,39.7
2022-09-09T05:32:44.086Z,39.7
2022-09-09T05:37:44.760Z,39.7
2022-09-09T05:42:45.166Z,39.6
2022-09-09T05:47:45.574Z,39.6
2022-09-09T05:52:46.020Z,39.6
2022-09-09T05:57:46.458Z,39.5
2022-09-09T06:02:46.970Z,39.5
2022-09-09T06:07:47.500Z,39.5
2022-09-09T06:12:47.901Z,39.4
2022-09-09T06:17:48.334Z,39.4
2022-09-09T06:22:48.781Z,39.4
2022-09-09T06:27:49.178Z,39.4
2022-09-09T06:32:49.837Z,39.4
2022-09-09T06:37:50.253Z,39.3
2022-09-09T06:42:50.684Z,39.2
2022-09-09T06:47:51.970Z,39.2
2022-09-09T06:52:52.397Z,39.2
2022-09-09T06:57:52.820Z,39.2
2022-09-09T07:02:53.236Z,39.2
2022-09-09T07:07:53.667Z,39.1
2022-09-09T07:12:54.355Z,39.1
2022-09-09T07:17:54.770Z,39.1
2022-09-09T07:22:55.163Z,39
2022-09-09T07:27:55.579Z,38.9
2022-09-09T07:32:56.006Z,38.9
2022-09-09T07:37:56.684Z,38.9
2022-09-09T07:42:57.086Z,38.8
2022-09-09T07:47:57.763Z,38.8
2022-09-09T07:52:58.185Z,38.7
2022-09-09T07:57:58.609Z,38.7
2022-09-09T08:02:59.076Z,38.7
2022-09-09T08:07:59.550Z,38.7
2022-09-09T08:13:17.147Z,38.7
2022-09-09T08:18:18.415Z,38.7
2022-09-09T08:23:18.844Z,38.6
2022-09-09T08:28:19.289Z,38.6
2022-09-09T08:33:19.735Z,38.6
2022-09-09T08:38:20.121Z,38.5
2022-09-09T08:43:20.513Z,38.5
2022-09-09T08:48:20.917Z,38.4
2022-09-09T08:53:21.303Z,38.4
2022-09-09T08:58:21.690Z,38.4
2022-09-09T09:03:22.303Z,38.4
2022-09-09T09:08:22.707Z,38.4
2022-09-09T09:13:23.097Z,38.3
2022-09-09T09:18:23.493Z,38.3
2022-09-09T09:23:23.914Z,38.2
2022-09-09T09:28:24.302Z,38.2
2022-09-09T09:33:24.677Z,38.2
2022-09-09T09:43:55.546Z,38.2
2022-09-09T09:48:55.933Z,38.2
2022-09-09T09:53:56.293Z,38.1
2022-09-09T09:58:56.660Z,38.1
2022-09-09T10:03:57.083Z,38.1
2022-09-09T10:08:57.453Z,38.1
2022-09-09T10:13:57.833Z,38.1
2022-09-09T10:18:58.266Z,38
2022-09-09T10:23:58.689Z,38
2022-09-09T10:28:59.181Z,38
2022-09-09T10:33:59.590Z,37.9
2022-09-09T10:38:59.941Z,37.9
2022-09-09T10:44:00.721Z,37.9
2022-09-09T10:49:01.135Z,37.9
2022-09-09T10:54:01.487Z,37.8
2022-09-09T10:59:01.899Z,37.8
2022-09-09T11:04:02.242Z,37.7
2022-09-09T11:09:02.595Z,37.7
2022-09-09T11:14:03.134Z,37.7
2022-09-09T11:19:03.743Z,37.7
2022-09-09T11:24:04.356Z,37.7
2022-09-09T11:29:05.190Z,37.6
2022-09-09T11:34:05.642Z,37.6
2022-09-09T11:39:06.011Z,37.6
2022-09-09T11:44:06.581Z,37.6
2022-09-09T11:49:06.909Z,37.6
2022-09-09T11:54:07.268Z,37.6
2022-09-09T11:59:08.519Z,37.6
2022-09-09T12:04:08.903Z,37.5
2022-09-09T12:09:09.271Z,37.5
2022-09-09T12:14:09.661Z,37.5
2022-09-09T12:19:10.280Z,37.4
2022-09-09T12:24:11.516Z,37.4
2022-09-09T12:29:12.724Z,37.4
2022-09-09T12:34:13.074Z,37.4
2022-09-09T12:39:13.387Z,37.4
2022-09-09T12:44:13.720Z,37.3
2022-09-09T12:49:14.030Z,37.3
2022-09-09T12:54:14.619Z,37.3
2022-09-09T12:59:14.960Z,37.3
2022-09-09T13:04:15.497Z,37.2
2022-09-09T13:14:17.413Z,37.2
2022-09-09T13:19:17.734Z,37.2
2022-09-09T13:24:18.073Z,37.2
2022-09-09T13:29:18.386Z,37.2
2022-09-09T13:34:18.754Z,37.2
2022-09-09T13:39:19.071Z,37.1
2022-09-09T13:44:19.361Z,37.1
2022-09-09T13:49:19.912Z,37.1
2022-09-09T13:54:20.255Z,37
2022-09-09T13:59:20.545Z,37
2022-09-09T14:04:20.857Z,37
2022-09-09T14:09:21.181Z,36.9
2022-09-09T14:14:21.551Z,36.9
2022-09-09T14:19:22.157Z,36.9
2022-09-09T14:24:22.497Z,36.9
2022-09-09T14:29:23.058Z,36.9
2022-09-09T14:34:23.418Z,36.9
2022-09-09T14:39:23.750Z,36.9
2022-09-09T14:44:24.292Z,36.8
2022-09-09T14:49:24.662Z,36.8
2022-09-09T14:54:25.282Z,36.7
2022-09-09T14:59:25.637Z,36.7
2022-09-09T15:04:26.006Z,36.7
2022-09-09T15:09:26.396Z,36.7
2022-09-09T15:14:26.733Z,36.7
2022-09-09T15:19:27.110Z,36.7
2022-09-09T15:24:28.311Z,36.6
2022-09-09T15:29:28.845Z,36.6
2022-09-09T15:34:29.268Z,36.6
2022-09-09T15:39:29.597Z,36.6
2022-09-09T15:44:29.998Z,36.6
2022-09-09T15:49:30.425Z,36.6
2022-09-09T15:54:30.759Z,36.6
2022-09-09T15:59:32.096Z,36.6
2022-09-09T16:04:32.490Z,36.5
2022-09-09T16:09:32.862Z,36.5
2022-09-09T16:14:33.239Z,36.5
2022-09-09T16:19:33.577Z,36.4
2022-09-09T16:24:33.939Z,36.4
2022-09-09T16:29:34.523Z,36.4
2022-09-09T16:34:34.906Z,36.4
2022-09-09T16:39:35.545Z,36.4
2022-09-09T16:44:36.007Z,36.4
2022-09-09T16:49:36.377Z,36.4
2022-09-09T16:54:36.929Z,36.3
2022-09-09T16:59:37.296Z,36.3
2022-09-09T17:04:37.666Z,36.3
2022-09-09T17:09:38.036Z,36.3
2022-09-09T17:14:38.354Z,36.2
2022-09-09T17:19:38.707Z,36.2
2022-09-09T17:24:39.456Z,36.2
2022-09-09T17:29:40.013Z,36.2
2022-09-09T17:34:40.364Z,36.2
2022-09-09T17:39:40.724Z,36.2
2022-09-09T17:44:41.250Z,36.2
2022-09-09T17:49:41.826Z,36.4
2022-09-09T17:54:42.196Z,38
2022-09-09T17:59:42.634Z,39.2
2022-09-09T18:04:43.057Z,39.9
2022-09-09T18:09:43.575Z,39.7
2022-09-09T18:14:43.979Z,39.7
2022-09-09T18:19:44.633Z,39.7
2022-09-09T18:24:45.052Z,38.4
2022-09-09T18:29:45.699Z,37.9
2022-09-09T18:34:46.293Z,37.7
2022-09-09T18:39:46.659Z,37.7
2022-09-09T18:44:47.079Z,37.6
2022-09-09T18:49:47.407Z,37.6
2022-09-09T18:54:47.750Z,37.5
2022-09-09T18:59:48.322Z,37.4
2022-09-09T19:04:48.674Z,37.4
2022-09-09T19:09:49.067Z,37.3
2022-09-09T19:14:49.656Z,37.2
2022-09-09T19:19:49.978Z,37.1
2022-09-09T19:24:50.342Z,37.1
2022-09-09T19:29:52.975Z,37
2022-09-09T19:34:55.524Z,36.9
2022-09-09T19:39:56.845Z,36.9
2022-09-09T19:44:57.300Z,36.8
2022-09-09T19:49:57.660Z,36.8
2022-09-09T19:54:58.249Z,36.7
2022-09-09T19:59:58.595Z,36.6
2022-09-09T20:04:59.813Z,36.6
2022-09-09T20:10:00.151Z,36.6
2022-09-09T20:15:00.641Z,36.5
2022-09-09T20:20:00.974Z,36.4
2022-09-09T20:25:01.300Z,36.4
2022-09-09T20:30:01.660Z,36.3
2022-09-09T20:35:02.010Z,36.2
2022-09-09T20:40:02.400Z,36.2
2022-09-09T20:45:02.851Z,36.1
2022-09-09T20:50:03.374Z,36.1
2022-09-09T20:55:03.966Z,36
2022-09-09T21:00:04.265Z,36
2022-09-09T21:05:04.571Z,35.9
2022-09-09T21:10:05.099Z,35.9
2022-09-09T21:15:05.687Z,35.8
2022-09-09T21:20:06.217Z,35.7
2022-09-09T21:25:06.736Z,35.7
2022-09-09T21:30:07.011Z,35.7
2022-09-09T21:35:07.416Z,35.6
2022-09-09T21:40:07.785Z,35.6
2022-09-09T21:45:08.102Z,35.6
2022-09-09T21:50:08.444Z,35.5
2022-09-09T21:55:08.781Z,35.4
2022-09-09T22:00:09.084Z,35.4
2022-09-09T22:05:09.405Z,35.4
2022-09-09T22:10:09.913Z,35.3
2022-09-09T22:15:10.465Z,35.3
2022-09-09T22:20:10.768Z,35.2
2022-09-09T22:25:11.059Z,35.2
2022-09-09T22:30:11.375Z,35.2
2022-09-09T22:35:11.943Z,35.1
2022-09-09T22:40:12.199Z,35.1
2022-09-09T22:45:12.495Z,35.1
2022-09-09T22:50:12.781Z,35.1
2022-09-09T22:55:13.074Z,35
2022-09-09T23:00:13.330Z,34.9
2022-09-09T23:05:13.607Z,34.9
2022-09-09T23:10:14.093Z,34.9
2022-09-09T23:15:14.368Z,34.9
2022-09-09T23:20:14.651Z,34.8
2022-09-09T23:25:14.894Z,34.7
2022-09-09T23:30:15.148Z,34.7
2022-09-09T23:35:15.422Z,34.7
2022-09-09T23:40:15.879Z,34.7
2022-09-09T23:45:16.119Z,34.6
2022-09-09T23:50:16.372Z,34.6
2022-09-09T23:55:16.659Z,34.6
